Windsor Locks, CT

6:37 AM EST on December 18, 2014 (GMT -0500)
Barnes Municipal | Change Station
CLOSE
Current Station
Airport
Location: Westfield,
Elevation: 269 ft
Nearby Weather Stations
Active Advisory: Special Statement

Elev 269 ft 42.16 °N, 72.71 °W | Updated 44 minutes ago

Overcast
Overcast
38 °F
Feels Like 31 °F
N
10
Wind Variable Wind from NW
Gusts 20 mph

Today
High -- | Low -- °F
--% Chance of Precip.
Yesterday
High -- | Low -- °F
Precip. -- in
7:13 AM 4:21 PM
Waning Crescent, 15% visible
Pressure 29.81 in
Visibility 10.0 miles
Clouds Mostly Cloudy 3100 ft
Overcast 6000 ft
Windchill 31 °F
Dew Point 26 °F
Humidity 62%
Rainfall 0.00 in
Snow Depth Not available.
UV 0 out of 12
Pollen .10 out of 12
Air Quality Not available.
Flu Activity Not available.
METAR KBAF 181053Z 31009G17KT 10SM BKN031 OVC060 03/M03 A2980 RMK AO2 SLP095 T00331033

More Conditions Fewer Conditions

Pressure 29.81 in
Visibility 10.0 miles
Clouds Mostly Cloudy 3100 ft
Overcast 6000 ft
Windchill 31 °F
Dew Point 26 °F
Humidity 62%
Rainfall 0.00 in
Snow Depth Not available.
UV 0 out of 12
Pollen .10 out of 12
Air Quality Not available.
Flu Activity Not available.
METAR KBAF 181053Z 31009G17KT 10SM BKN031 OVC060 03/M03 A2980 RMK AO2 SLP095 T00331033

More Conditions Fewer Conditions

10-Day Weather Forecast

Almanac

Astronomy

Dec. 18, 2014 Rise Set
Actual Time
Civil Twilight
Nautical Twilight
Astronomical Twilight
Moon
Length of Visible Light
Length of Day
Tomorrow will be .
, % of the Moon is Illuminated

Today's Extremes

State Highs State Lows

Community

WunderPhotos

Upload Photos

1,778,919 photos uploaded!

WunderBlogs® & News

Nearby

Air Quality

  Air Quality AQ Index Pollutant
Not available.

Snow Depth

Station Depth Elevation

Earthquake Activity

City Distance Mag. Time & Date
Minimum magnitude displayed is 2.5.

Coastal Water Temperatures

Place Temperature

Nearby Weather Stations